sensor_id;sensor_type;location;lat;lon;timestamp;temperature;humidity
5334;DHT22;2689;50.954;7.116;2022-12-31T00:00:55;13.70;99.90
5334;DHT22;2689;50.954;7.116;2022-12-31T00:03:22;13.70;99.90
5334;DHT22;2689;50.954;7.116;2022-12-31T00:05:50;13.70;99.90
5334;DHT22;2689;50.954;7.116;2022-12-31T00:08:16;13.70;99.90
5334;DHT22;2689;50.954;7.116;2022-12-31T00:10:43;13.70;99.90
5334;DHT22;2689;50.954;7.116;2022-12-31T00:13:11;13.70;99.90
5334;DHT22;2689;50.954;7.116;2022-12-31T00:15:39;13.70;99.90
5334;DHT22;2689;50.954;7.116;2022-12-31T00:18:06;13.70;99.90
5334;DHT22;2689;50.954;7.116;2022-12-31T00:20:33;13.70;99.90
5334;DHT22;2689;50.954;7.116;2022-12-31T00:23:01;13.70;99.90
5334;DHT22;2689;50.954;7.116;2022-12-31T00:25:28;13.70;99.90
5334;DHT22;2689;50.954;7.116;2022-12-31T00:27:55;13.70;99.90
5334;DHT22;2689;50.954;7.116;2022-12-31T00:30:21;13.80;99.90
5334;DHT22;2689;50.954;7.116;2022-12-31T00:32:48;13.80;99.90
5334;DHT22;2689;50.954;7.116;2022-12-31T00:35:15;13.80;99.90
5334;DHT22;2689;50.954;7.116;2022-12-31T00:37:41;13.90;99.90
5334;DHT22;2689;50.954;7.116;2022-12-31T00:40:10;14.00;99.90
5334;DHT22;2689;50.954;7.116;2022-12-31T00:42:37;14.00;99.90
5334;DHT22;2689;50.954;7.116;2022-12-31T00:45:05;14.00;99.90
5334;DHT22;2689;50.954;7.116;2022-12-31T00:47:31;14.00;99.90
5334;DHT22;2689;50.954;7.116;2022-12-31T00:49:58;14.10;99.90
5334;DHT22;2689;50.954;7.116;2022-12-31T00:52:25;14.10;99.90
5334;DHT22;2689;50.954;7.116;2022-12-31T00:54:52;14.20;99.90
5334;DHT22;2689;50.954;7.116;2022-12-31T00:57:20;14.30;99.90
5334;DHT22;2689;50.954;7.116;2022-12-31T00:59:47;14.30;99.90
5334;DHT22;2689;50.954;7.116;2022-12-31T01:02:13;14.30;99.90
5334;DHT22;2689;50.954;7.116;2022-12-31T01:04:40;14.30;99.90
5334;DHT22;2689;50.954;7.116;2022-12-31T01:07:07;14.40;99.90
5334;DHT22;2689;50.954;7.116;2022-12-31T01:09:34;14.40;99.90
5334;DHT22;2689;50.954;7.116;2022-12-31T01:12:00;14.50;99.90
5334;DHT22;2689;50.954;7.116;2022-12-31T01:14:29;14.50;99.90
5334;DHT22;2689;50.954;7.116;2022-12-31T01:16:57;14.50;99.90
5334;DHT22;2689;50.954;7.116;2022-12-31T01:19:26;14.50;99.90
5334;DHT22;2689;50.954;7.116;2022-12-31T01:21:53;14.60;99.90
5334;DHT22;2689;50.954;7.116;2022-12-31T01:24:20;14.60;99.90
5334;DHT22;2689;50.954;7.116;2022-12-31T01:26:47;14.60;99.90
5334;DHT22;2689;50.954;7.116;2022-12-31T01:29:15;14.60;99.90
5334;DHT22;2689;50.954;7.116;2022-12-31T01:31:43;14.70;99.90
5334;DHT22;2689;50.954;7.116;2022-12-31T01:34:10;14.70;99.90
5334;DHT22;2689;50.954;7.116;2022-12-31T01:36:37;14.80;99.90
5334;DHT22;2689;50.954;7.116;2022-12-31T01:39:06;14.80;99.90
5334;DHT22;2689;50.954;7.116;2022-12-31T01:41:35;14.80;99.90
5334;DHT22;2689;50.954;7.116;2022-12-31T01:47:13;14.90;99.90
5334;DHT22;2689;50.954;7.116;2022-12-31T01:49:44;14.90;99.90
5334;DHT22;2689;50.954;7.116;2022-12-31T01:52:16;14.90;99.90
5334;DHT22;2689;50.954;7.116;2022-12-31T01:54:47;14.90;99.90
5334;DHT22;2689;50.954;7.116;2022-12-31T01:57:15;15.00;99.90
5334;DHT22;2689;50.954;7.116;2022-12-31T01:59:43;15.00;99.90
5334;DHT22;2689;50.954;7.116;2022-12-31T02:02:12;15.00;99.90
5334;DHT22;2689;50.954;7.116;2022-12-31T02:04:39;15.10;99.90
5334;DHT22;2689;50.954;7.116;2022-12-31T02:07:08;15.10;99.90
5334;DHT22;2689;50.954;7.116;2022-12-31T02:09:36;15.20;99.90
5334;DHT22;2689;50.954;7.116;2022-12-31T02:12:04;15.20;99.90
5334;DHT22;2689;50.954;7.116;2022-12-31T02:14:33;15.20;99.90
5334;DHT22;2689;50.954;7.116;2022-12-31T02:17:05;15.20;99.90
5334;DHT22;2689;50.954;7.116;2022-12-31T02:23:22;15.20;99.90
5334;DHT22;2689;50.954;7.116;2022-12-31T02:26:04;15.30;99.90
5334;DHT22;2689;50.954;7.116;2022-12-31T02:28:45;15.30;99.90
5334;DHT22;2689;50.954;7.116;2022-12-31T02:31:20;15.30;99.90
5334;DHT22;2689;50.954;7.116;2022-12-31T02:33:51;15.30;99.90
5334;DHT22;2689;50.954;7.116;2022-12-31T02:36:23;15.30;99.90
5334;DHT22;2689;50.954;7.116;2022-12-31T02:38:51;15.30;99.90
5334;DHT22;2689;50.954;7.116;2022-12-31T02:41:19;15.40;99.90
5334;DHT22;2689;50.954;7.116;2022-12-31T02:44:00;15.30;99.90
5334;DHT22;2689;50.954;7.116;2022-12-31T02:46:31;15.40;99.90
5334;DHT22;2689;50.954;7.116;2022-12-31T02:49:05;15.40;99.90
5334;DHT22;2689;50.954;7.116;2022-12-31T02:51:38;15.50;99.90
5334;DHT22;2689;50.954;7.116;2022-12-31T02:54:16;15.50;99.90
5334;DHT22;2689;50.954;7.116;2022-12-31T02:56:52;15.50;99.90
5334;DHT22;2689;50.954;7.116;2022-12-31T02:59:28;15.50;99.90
5334;DHT22;2689;50.954;7.116;2022-12-31T03:02:18;15.60;99.90
5334;DHT22;2689;50.954;7.116;2022-12-31T03:04:47;15.70;99.90
5334;DHT22;2689;50.954;7.116;2022-12-31T03:07:18;15.70;99.90
5334;DHT22;2689;50.954;7.116;2022-12-31T03:09:45;15.70;99.90
5334;DHT22;2689;50.954;7.116;2022-12-31T03:12:12;15.70;99.90
5334;DHT22;2689;50.954;7.116;2022-12-31T03:14:57;15.80;99.90
5334;DHT22;2689;50.954;7.116;2022-12-31T03:17:26;15.80;99.90
5334;DHT22;2689;50.954;7.116;2022-12-31T03:19:53;16.00;99.90
5334;DHT22;2689;50.954;7.116;2022-12-31T03:22:40;16.00;99.90
5334;DHT22;2689;50.954;7.116;2022-12-31T03:25:10;16.00;99.90
5334;DHT22;2689;50.954;7.116;2022-12-31T03:27:55;16.10;99.90
5334;DHT22;2689;50.954;7.116;2022-12-31T03:30:23;16.10;99.90
5334;DHT22;2689;50.954;7.116;2022-12-31T03:32:51;16.10;99.90
5334;DHT22;2689;50.954;7.116;2022-12-31T03:35:21;16.10;99.90
5334;DHT22;2689;50.954;7.116;2022-12-31T03:37:49;16.10;99.90
5334;DHT22;2689;50.954;7.116;2022-12-31T03:40:17;16.00;99.90
5334;DHT22;2689;50.954;7.116;2022-12-31T03:42:44;16.10;99.90
5334;DHT22;2689;50.954;7.116;2022-12-31T03:45:13;16.20;99.90
5334;DHT22;2689;50.954;7.116;2022-12-31T03:47:40;16.20;99.90
5334;DHT22;2689;50.954;7.116;2022-12-31T03:50:10;16.20;99.90
5334;DHT22;2689;50.954;7.116;2022-12-31T03:52:38;16.30;99.90
5334;DHT22;2689;50.954;7.116;2022-12-31T03:55:06;16.30;99.90
5334;DHT22;2689;50.954;7.116;2022-12-31T03:57:33;16.20;99.90
5334;DHT22;2689;50.954;7.116;2022-12-31T04:00:00;16.20;99.90
5334;DHT22;2689;50.954;7.116;2022-12-31T04:02:27;16.20;99.90
5334;DHT22;2689;50.954;7.116;2022-12-31T04:04:54;16.20;99.90
5334;DHT22;2689;50.954;7.116;2022-12-31T04:07:22;16.20;99.90
5334;DHT22;2689;50.954;7.116;2022-12-31T04:09:49;16.10;99.90
5334;DHT22;2689;50.954;7.116;2022-12-31T04:12:15;16.10;99.90
5334;DHT22;2689;50.954;7.116;2022-12-31T04:14:42;16.00;99.90
5334;DHT22;2689;50.954;7.116;2022-12-31T04:17:09;16.10;99.90
5334;DHT22;2689;50.954;7.116;2022-12-31T04:19:35;16.10;99.90
5334;DHT22;2689;50.954;7.116;2022-12-31T04:22:02;16.10;99.90
5334;DHT22;2689;50.954;7.116;2022-12-31T04:24:30;16.20;99.90
5334;DHT22;2689;50.954;7.116;2022-12-31T04:26:57;16.20;99.90
5334;DHT22;2689;50.954;7.116;2022-12-31T04:29:24;16.10;99.90
5334;DHT22;2689;50.954;7.116;2022-12-31T04:31:51;16.20;99.90
5334;DHT22;2689;50.954;7.116;2022-12-31T04:34:18;16.30;99.90
5334;DHT22;2689;50.954;7.116;2022-12-31T04:36:45;16.30;99.90
5334;DHT22;2689;50.954;7.116;2022-12-31T04:39:11;16.40;99.90
5334;DHT22;2689;50.954;7.116;2022-12-31T04:41:39;16.30;99.90
5334;DHT22;2689;50.954;7.116;2022-12-31T04:44:06;16.30;99.90
5334;DHT22;2689;50.954;7.116;2022-12-31T04:46:33;16.40;99.90
5334;DHT22;2689;50.954;7.116;2022-12-31T04:49:00;16.40;99.90
5334;DHT22;2689;50.954;7.116;2022-12-31T04:51:28;16.50;99.90
5334;DHT22;2689;50.954;7.116;2022-12-31T04:53:55;16.50;99.90
5334;DHT22;2689;50.954;7.116;2022-12-31T04:56:23;16.40;99.90
5334;DHT22;2689;50.954;7.116;2022-12-31T04:58:52;16.40;99.90
5334;DHT22;2689;50.954;7.116;2022-12-31T05:01:19;16.40;99.90
5334;DHT22;2689;50.954;7.116;2022-12-31T05:03:46;16.40;99.90
5334;DHT22;2689;50.954;7.116;2022-12-31T05:06:15;16.50;99.90
5334;DHT22;2689;50.954;7.116;2022-12-31T05:08:42;16.50;99.90
5334;DHT22;2689;50.954;7.116;2022-12-31T05:11:10;16.50;99.90
5334;DHT22;2689;50.954;7.116;2022-12-31T05:13:37;16.60;99.90
5334;DHT22;2689;50.954;7.116;2022-12-31T05:16:05;16.50;99.90
5334;DHT22;2689;50.954;7.116;2022-12-31T05:18:32;16.60;99.90
5334;DHT22;2689;50.954;7.116;2022-12-31T05:20:59;16.60;99.90
5334;DHT22;2689;50.954;7.116;2022-12-31T05:23:26;16.60;99.90
5334;DHT22;2689;50.954;7.116;2022-12-31T05:25:53;16.60;99.90
5334;DHT22;2689;50.954;7.116;2022-12-31T05:28:20;16.70;99.90
5334;DHT22;2689;50.954;7.116;2022-12-31T05:30:47;16.70;99.90
5334;DHT22;2689;50.954;7.116;2022-12-31T05:33:16;16.70;99.90
5334;DHT22;2689;50.954;7.116;2022-12-31T05:35:43;16.70;99.90
5334;DHT22;2689;50.954;7.116;2022-12-31T05:38:10;16.80;99.90
5334;DHT22;2689;50.954;7.116;2022-12-31T05:40:36;16.90;99.90
5334;DHT22;2689;50.954;7.116;2022-12-31T05:43:03;17.00;99.90
5334;DHT22;2689;50.954;7.116;2022-12-31T05:45:30;17.00;99.90
5334;DHT22;2689;50.954;7.116;2022-12-31T05:47:57;17.10;99.90
5334;DHT22;2689;50.954;7.116;2022-12-31T05:50:25;17.00;99.90
5334;DHT22;2689;50.954;7.116;2022-12-31T05:52:51;17.00;99.90
5334;DHT22;2689;50.954;7.116;2022-12-31T05:55:18;17.00;99.90
5334;DHT22;2689;50.954;7.116;2022-12-31T05:57:45;17.10;99.90
5334;DHT22;2689;50.954;7.116;2022-12-31T06:00:13;17.10;99.90
5334;DHT22;2689;50.954;7.116;2022-12-31T06:02:40;17.10;99.90
5334;DHT22;2689;50.954;7.116;2022-12-31T06:05:07;17.10;99.90
5334;DHT22;2689;50.954;7.116;2022-12-31T06:07:35;17.10;99.90
5334;DHT22;2689;50.954;7.116;2022-12-31T06:10:02;17.10;99.90
5334;DHT22;2689;50.954;7.116;2022-12-31T06:12:29;17.10;99.90
5334;DHT22;2689;50.954;7.116;2022-12-31T06:14:56;17.10;99.90
5334;DHT22;2689;50.954;7.116;2022-12-31T06:17:23;17.10;99.90
5334;DHT22;2689;50.954;7.116;2022-12-31T06:19:50;17.10;99.90
5334;DHT22;2689;50.954;7.116;2022-12-31T06:22:17;17.10;99.90
5334;DHT22;2689;50.954;7.116;2022-12-31T06:24:45;17.10;99.90
5334;DHT22;2689;50.954;7.116;2022-12-31T06:27:12;17.20;99.90
5334;DHT22;2689;50.954;7.116;2022-12-31T06:29:38;17.20;99.90
5334;DHT22;2689;50.954;7.116;2022-12-31T06:32:05;17.10;99.90
5334;DHT22;2689;50.954;7.116;2022-12-31T06:34:32;17.20;99.90
5334;DHT22;2689;50.954;7.116;2022-12-31T06:36:58;17.20;99.90
5334;DHT22;2689;50.954;7.116;2022-12-31T06:39:25;17.20;99.90
5334;DHT22;2689;50.954;7.116;2022-12-31T06:41:53;17.20;99.90
5334;DHT22;2689;50.954;7.116;2022-12-31T06:44:20;17.20;99.90
5334;DHT22;2689;50.954;7.116;2022-12-31T06:46:48;17.20;99.90
5334;DHT22;2689;50.954;7.116;2022-12-31T06:49:15;17.20;99.90
5334;DHT22;2689;50.954;7.116;2022-12-31T06:51:42;17.30;99.90
5334;DHT22;2689;50.954;7.116;2022-12-31T06:54:10;17.30;99.90
5334;DHT22;2689;50.954;7.116;2022-12-31T06:56:38;17.30;99.90
5334;DHT22;2689;50.954;7.116;2022-12-31T06:59:21;17.30;99.90
5334;DHT22;2689;50.954;7.116;2022-12-31T07:02:06;17.30;99.90
5334;DHT22;2689;50.954;7.116;2022-12-31T07:04:57;17.30;99.90
5334;DHT22;2689;50.954;7.116;2022-12-31T07:07:32;17.30;99.90
5334;DHT22;2689;50.954;7.116;2022-12-31T07:10:06;17.30;99.90
5334;DHT22;2689;50.954;7.116;2022-12-31T07:12:47;17.30;99.90
5334;DHT22;2689;50.954;7.116;2022-12-31T07:15:24;17.30;99.90
5334;DHT22;2689;50.954;7.116;2022-12-31T07:18:00;17.30;99.90
5334;DHT22;2689;50.954;7.116;2022-12-31T07:20:29;17.30;99.90
5334;DHT22;2689;50.954;7.116;2022-12-31T07:22:56;17.40;99.90
5334;DHT22;2689;50.954;7.116;2022-12-31T07:25:23;17.40;99.90
5334;DHT22;2689;50.954;7.116;2022-12-31T07:28:00;17.40;99.90
5334;DHT22;2689;50.954;7.116;2022-12-31T07:30:36;17.40;99.90
5334;DHT22;2689;50.954;7.116;2022-12-31T07:33:25;17.40;99.90
5334;DHT22;2689;50.954;7.116;2022-12-31T07:36:04;17.30;99.90
5334;DHT22;2689;50.954;7.116;2022-12-31T07:38:39;17.40;99.90
5334;DHT22;2689;50.954;7.116;2022-12-31T07:41:14;17.30;99.90
5334;DHT22;2689;50.954;7.116;2022-12-31T07:43:53;17.30;99.90
5334;DHT22;2689;50.954;7.116;2022-12-31T07:46:27;17.30;99.90
5334;DHT22;2689;50.954;7.116;2022-12-31T07:48:57;17.30;99.90
5334;DHT22;2689;50.954;7.116;2022-12-31T07:51:24;17.30;99.90
5334;DHT22;2689;50.954;7.116;2022-12-31T07:53:51;17.30;99.90
5334;DHT22;2689;50.954;7.116;2022-12-31T07:56:18;17.30;99.90
5334;DHT22;2689;50.954;7.116;2022-12-31T07:58:57;17.30;99.90
5334;DHT22;2689;50.954;7.116;2022-12-31T08:01:38;17.30;99.90
5334;DHT22;2689;50.954;7.116;2022-12-31T08:04:13;17.30;99.90
5334;DHT22;2689;50.954;7.116;2022-12-31T08:06:48;17.30;99.90
5334;DHT22;2689;50.954;7.116;2022-12-31T08:09:28;17.20;99.90
5334;DHT22;2689;50.954;7.116;2022-12-31T08:12:00;17.20;99.90
5334;DHT22;2689;50.954;7.116;2022-12-31T08:14:29;17.20;99.90
5334;DHT22;2689;50.954;7.116;2022-12-31T08:16:59;17.30;99.90
5334;DHT22;2689;50.954;7.116;2022-12-31T08:19:28;17.30;99.90
5334;DHT22;2689;50.954;7.116;2022-12-31T08:22:10;17.30;99.90
5334;DHT22;2689;50.954;7.116;2022-12-31T08:24:49;17.40;99.90
5334;DHT22;2689;50.954;7.116;2022-12-31T08:27:25;17.30;99.90
5334;DHT22;2689;50.954;7.116;2022-12-31T08:30:03;17.30;99.90
5334;DHT22;2689;50.954;7.116;2022-12-31T08:32:34;17.40;99.90
5334;DHT22;2689;50.954;7.116;2022-12-31T08:35:10;17.40;99.90
5334;DHT22;2689;50.954;7.116;2022-12-31T08:37:43;17.40;99.90
5334;DHT22;2689;50.954;7.116;2022-12-31T08:40:19;17.40;99.90
5334;DHT22;2689;50.954;7.116;2022-12-31T08:43:06;17.40;99.90
5334;DHT22;2689;50.954;7.116;2022-12-31T08:45:41;17.40;99.90
5334;DHT22;2689;50.954;7.116;2022-12-31T08:48:27;17.40;99.90
5334;DHT22;2689;50.954;7.116;2022-12-31T08:50:56;17.50;99.90
5334;DHT22;2689;50.954;7.116;2022-12-31T08:53:24;17.50;99.90
5334;DHT22;2689;50.954;7.116;2022-12-31T08:55:56;17.50;99.90
5334;DHT22;2689;50.954;7.116;2022-12-31T08:58:35;17.50;99.90
5334;DHT22;2689;50.954;7.116;2022-12-31T09:01:07;17.50;99.90
5334;DHT22;2689;50.954;7.116;2022-12-31T09:03:44;17.50;99.90
5334;DHT22;2689;50.954;7.116;2022-12-31T09:06:20;17.50;99.90
5334;DHT22;2689;50.954;7.116;2022-12-31T09:08:53;17.50;99.90
5334;DHT22;2689;50.954;7.116;2022-12-31T09:11:28;17.70;99.90
5334;DHT22;2689;50.954;7.116;2022-12-31T09:14:11;17.70;99.90
5334;DHT22;2689;50.954;7.116;2022-12-31T09:16:48;17.70;99.90
5334;DHT22;2689;50.954;7.116;2022-12-31T09:19:21;17.60;99.90
5334;DHT22;2689;50.954;7.116;2022-12-31T09:21:54;17.60;99.90
5334;DHT22;2689;50.954;7.116;2022-12-31T09:24:21;17.70;99.90
5334;DHT22;2689;50.954;7.116;2022-12-31T09:26:56;17.60;99.90
5334;DHT22;2689;50.954;7.116;2022-12-31T09:29:36;17.60;99.90
5334;DHT22;2689;50.954;7.116;2022-12-31T09:32:17;17.60;99.90
5334;DHT22;2689;50.954;7.116;2022-12-31T09:34:54;17.70;99.90
5334;DHT22;2689;50.954;7.116;2022-12-31T09:37:36;17.70;99.90
5334;DHT22;2689;50.954;7.116;2022-12-31T09:40:31;17.70;99.90
5334;DHT22;2689;50.954;7.116;2022-12-31T09:43:23;17.80;99.90
5334;DHT22;2689;50.954;7.116;2022-12-31T09:46:18;17.80;99.90
5334;DHT22;2689;50.954;7.116;2022-12-31T09:49:15;17.70;99.90
5334;DHT22;2689;50.954;7.116;2022-12-31T09:51:55;17.80;99.90
5334;DHT22;2689;50.954;7.116;2022-12-31T09:54:42;17.80;99.90
5334;DHT22;2689;50.954;7.116;2022-12-31T09:57:26;17.80;99.90
5334;DHT22;2689;50.954;7.116;2022-12-31T10:00:00;17.80;99.90
5334;DHT22;2689;50.954;7.116;2022-12-31T10:02:51;17.80;99.90
5334;DHT22;2689;50.954;7.116;2022-12-31T10:05:55;17.80;99.90
5334;DHT22;2689;50.954;7.116;2022-12-31T10:08:37;17.80;99.90
5334;DHT22;2689;50.954;7.116;2022-12-31T10:11:15;17.80;99.90
5334;DHT22;2689;50.954;7.116;2022-12-31T10:13:59;17.80;99.90
5334;DHT22;2689;50.954;7.116;2022-12-31T10:16:47;17.80;99.90
5334;DHT22;2689;50.954;7.116;2022-12-31T10:19:46;17.80;99.90
5334;DHT22;2689;50.954;7.116;2022-12-31T10:22:42;17.80;99.90
5334;DHT22;2689;50.954;7.116;2022-12-31T10:25:25;17.90;99.90
5334;DHT22;2689;50.954;7.116;2022-12-31T10:27:58;17.90;99.90
5334;DHT22;2689;50.954;7.116;2022-12-31T10:30:31;18.00;99.90
5334;DHT22;2689;50.954;7.116;2022-12-31T10:33:14;18.00;99.90
5334;DHT22;2689;50.954;7.116;2022-12-31T10:35:48;18.00;99.90
5334;DHT22;2689;50.954;7.116;2022-12-31T10:38:30;18.00;99.90
5334;DHT22;2689;50.954;7.116;2022-12-31T10:41:36;17.90;99.90
5334;DHT22;2689;50.954;7.116;2022-12-31T10:48:04;17.90;99.90
5334;DHT22;2689;50.954;7.116;2022-12-31T10:51:12;17.90;99.90
5334;DHT22;2689;50.954;7.116;2022-12-31T10:54:12;17.90;99.90
5334;DHT22;2689;50.954;7.116;2022-12-31T10:57:08;17.90;99.90
5334;DHT22;2689;50.954;7.116;2022-12-31T11:03:19;17.80;99.90
5334;DHT22;2689;50.954;7.116;2022-12-31T11:06:24;17.80;99.90
5334;DHT22;2689;50.954;7.116;2022-12-31T11:09:31;17.80;99.90
5334;DHT22;2689;50.954;7.116;2022-12-31T11:12:22;17.80;99.90
5334;DHT22;2689;50.954;7.116;2022-12-31T11:15:14;17.80;99.90
5334;DHT22;2689;50.954;7.116;2022-12-31T11:17:50;17.90;99.90
5334;DHT22;2689;50.954;7.116;2022-12-31T11:20:29;17.90;99.90
5334;DHT22;2689;50.954;7.116;2022-12-31T11:23:10;18.00;99.90
5334;DHT22;2689;50.954;7.116;2022-12-31T11:25:49;18.00;99.90
5334;DHT22;2689;50.954;7.116;2022-12-31T11:28:39;18.00;99.90
5334;DHT22;2689;50.954;7.116;2022-12-31T11:31:27;18.00;99.90
5334;DHT22;2689;50.954;7.116;2022-12-31T11:34:07;18.00;99.90
5334;DHT22;2689;50.954;7.116;2022-12-31T11:36:45;18.00;99.90
5334;DHT22;2689;50.954;7.116;2022-12-31T11:39:27;18.00;99.90
5334;DHT22;2689;50.954;7.116;2022-12-31T11:42:01;18.00;99.90
5334;DHT22;2689;50.954;7.116;2022-12-31T11:44:38;18.10;99.90
5334;DHT22;2689;50.954;7.116;2022-12-31T11:47:15;18.10;99.90
5334;DHT22;2689;50.954;7.116;2022-12-31T11:50:08;18.10;99.90
5334;DHT22;2689;50.954;7.116;2022-12-31T11:52:50;18.10;99.90
5334;DHT22;2689;50.954;7.116;2022-12-31T11:55:29;18.10;99.90
5334;DHT22;2689;50.954;7.116;2022-12-31T11:58:07;18.20;99.90
5334;DHT22;2689;50.954;7.116;2022-12-31T12:00:38;18.20;99.90
5334;DHT22;2689;50.954;7.116;2022-12-31T12:03:06;18.20;99.90
5334;DHT22;2689;50.954;7.116;2022-12-31T12:05:34;18.20;99.90
5334;DHT22;2689;50.954;7.116;2022-12-31T12:08:01;18.10;99.90
5334;DHT22;2689;50.954;7.116;2022-12-31T12:10:30;18.10;99.90
5334;DHT22;2689;50.954;7.116;2022-12-31T12:12:58;18.10;99.90
5334;DHT22;2689;50.954;7.116;2022-12-31T12:15:27;18.10;99.90
5334;DHT22;2689;50.954;7.116;2022-12-31T12:17:58;18.10;99.90
5334;DHT22;2689;50.954;7.116;2022-12-31T12:20:29;18.20;99.90
5334;DHT22;2689;50.954;7.116;2022-12-31T12:22:59;18.10;99.90
5334;DHT22;2689;50.954;7.116;2022-12-31T12:25:35;18.20;99.90
5334;DHT22;2689;50.954;7.116;2022-12-31T12:28:16;18.10;99.90
5334;DHT22;2689;50.954;7.116;2022-12-31T12:30:44;18.10;99.90
5334;DHT22;2689;50.954;7.116;2022-12-31T12:33:16;18.10;99.90
5334;DHT22;2689;50.954;7.116;2022-12-31T12:35:43;18.10;99.90
5334;DHT22;2689;50.954;7.116;2022-12-31T12:38:14;18.00;99.90
5334;DHT22;2689;50.954;7.116;2022-12-31T12:40:50;18.00;99.90
5334;DHT22;2689;50.954;7.116;2022-12-31T12:43:21;18.00;99.90
5334;DHT22;2689;50.954;7.116;2022-12-31T12:45:49;18.10;99.90
5334;DHT22;2689;50.954;7.116;2022-12-31T12:48:20;18.00;99.90
5334;DHT22;2689;50.954;7.116;2022-12-31T12:50:51;18.10;99.90
5334;DHT22;2689;50.954;7.116;2022-12-31T12:53:35;18.00;99.90
5334;DHT22;2689;50.954;7.116;2022-12-31T12:56:15;18.10;99.90
5334;DHT22;2689;50.954;7.116;2022-12-31T12:58:55;18.00;99.90
5334;DHT22;2689;50.954;7.116;2022-12-31T13:01:29;17.80;99.90
5334;DHT22;2689;50.954;7.116;2022-12-31T13:04:31;17.70;99.90
5334;DHT22;2689;50.954;7.116;2022-12-31T13:07:11;17.70;99.90
5334;DHT22;2689;50.954;7.116;2022-12-31T13:09:56;17.70;99.90
5334;DHT22;2689;50.954;7.116;2022-12-31T13:12:32;17.70;99.90
5334;DHT22;2689;50.954;7.116;2022-12-31T13:15:03;17.90;99.90
5334;DHT22;2689;50.954;7.116;2022-12-31T13:17:43;17.90;99.90
5334;DHT22;2689;50.954;7.116;2022-12-31T13:20:18;17.90;99.90
5334;DHT22;2689;50.954;7.116;2022-12-31T13:22:53;17.90;99.90
5334;DHT22;2689;50.954;7.116;2022-12-31T13:25:27;18.00;99.90
5334;DHT22;2689;50.954;7.116;2022-12-31T13:28:01;18.00;99.90
5334;DHT22;2689;50.954;7.116;2022-12-31T13:30:32;18.00;99.90
5334;DHT22;2689;50.954;7.116;2022-12-31T13:33:04;17.90;99.90
5334;DHT22;2689;50.954;7.116;2022-12-31T13:35:43;17.90;99.90
5334;DHT22;2689;50.954;7.116;2022-12-31T13:38:14;17.80;99.90
5334;DHT22;2689;50.954;7.116;2022-12-31T13:40:45;17.50;99.90
5334;DHT22;2689;50.954;7.116;2022-12-31T13:43:18;17.30;99.90
5334;DHT22;2689;50.954;7.116;2022-12-31T13:45:53;17.20;99.90
5334;DHT22;2689;50.954;7.116;2022-12-31T13:48:29;17.10;99.90
5334;DHT22;2689;50.954;7.116;2022-12-31T13:51:02;16.90;99.90
5334;DHT22;2689;50.954;7.116;2022-12-31T13:53:35;16.90;99.90
5334;DHT22;2689;50.954;7.116;2022-12-31T13:56:05;16.90;99.90
5334;DHT22;2689;50.954;7.116;2022-12-31T13:58:41;17.10;99.90
5334;DHT22;2689;50.954;7.116;2022-12-31T14:01:13;17.10;99.90
5334;DHT22;2689;50.954;7.116;2022-12-31T14:03:49;17.10;99.90
5334;DHT22;2689;50.954;7.116;2022-12-31T14:06:27;17.10;99.90
5334;DHT22;2689;50.954;7.116;2022-12-31T14:08:55;17.10;99.90
5334;DHT22;2689;50.954;7.116;2022-12-31T14:11:33;17.20;99.90
5334;DHT22;2689;50.954;7.116;2022-12-31T14:14:14;17.10;99.90
5334;DHT22;2689;50.954;7.116;2022-12-31T14:16:50;16.80;99.90
5334;DHT22;2689;50.954;7.116;2022-12-31T14:19:27;16.80;99.90
5334;DHT22;2689;50.954;7.116;2022-12-31T14:22:02;16.70;99.90
5334;DHT22;2689;50.954;7.116;2022-12-31T14:24:39;16.60;99.90
5334;DHT22;2689;50.954;7.116;2022-12-31T14:27:12;16.60;99.90
5334;DHT22;2689;50.954;7.116;2022-12-31T14:29:44;16.50;99.90
5334;DHT22;2689;50.954;7.116;2022-12-31T14:35:13;16.70;99.90
5334;DHT22;2689;50.954;7.116;2022-12-31T14:37:49;16.70;99.90
5334;DHT22;2689;50.954;7.116;2022-12-31T14:40:21;16.90;99.90
5334;DHT22;2689;50.954;7.116;2022-12-31T14:42:59;17.00;99.90
5334;DHT22;2689;50.954;7.116;2022-12-31T14:45:38;17.10;99.90
5334;DHT22;2689;50.954;7.116;2022-12-31T14:48:15;17.10;99.90
5334;DHT22;2689;50.954;7.116;2022-12-31T14:50:46;17.10;99.90
5334;DHT22;2689;50.954;7.116;2022-12-31T14:53:20;17.20;99.90
5334;DHT22;2689;50.954;7.116;2022-12-31T14:55:56;17.20;99.90
5334;DHT22;2689;50.954;7.116;2022-12-31T14:58:30;17.30;99.90
5334;DHT22;2689;50.954;7.116;2022-12-31T15:00:58;17.20;99.90
5334;DHT22;2689;50.954;7.116;2022-12-31T15:03:33;17.30;99.90
5334;DHT22;2689;50.954;7.116;2022-12-31T15:06:07;17.20;99.90
5334;DHT22;2689;50.954;7.116;2022-12-31T15:08:46;17.20;99.90
5334;DHT22;2689;50.954;7.116;2022-12-31T15:11:27;17.20;99.90
5334;DHT22;2689;50.954;7.116;2022-12-31T15:14:27;17.30;99.90
5334;DHT22;2689;50.954;7.116;2022-12-31T15:17:05;17.40;99.90
5334;DHT22;2689;50.954;7.116;2022-12-31T15:22:34;17.30;99.90
5334;DHT22;2689;50.954;7.116;2022-12-31T15:25:28;17.30;99.90
5334;DHT22;2689;50.954;7.116;2022-12-31T15:27:57;17.30;99.90
5334;DHT22;2689;50.954;7.116;2022-12-31T15:30:38;17.30;99.90
5334;DHT22;2689;50.954;7.116;2022-12-31T15:33:15;17.20;99.90
5334;DHT22;2689;50.954;7.116;2022-12-31T15:35:46;17.30;99.90
5334;DHT22;2689;50.954;7.116;2022-12-31T15:38:28;17.30;99.90
5334;DHT22;2689;50.954;7.116;2022-12-31T15:40:56;17.30;99.90
5334;DHT22;2689;50.954;7.116;2022-12-31T15:43:31;17.30;99.90
5334;DHT22;2689;50.954;7.116;2022-12-31T15:46:01;17.20;99.90
5334;DHT22;2689;50.954;7.116;2022-12-31T15:48:34;17.20;99.90
5334;DHT22;2689;50.954;7.116;2022-12-31T15:51:04;17.10;99.90
5334;DHT22;2689;50.954;7.116;2022-12-31T15:53:38;17.00;99.90
5334;DHT22;2689;50.954;7.116;2022-12-31T15:56:15;17.00;99.90
5334;DHT22;2689;50.954;7.116;2022-12-31T15:58:43;17.00;99.90
5334;DHT22;2689;50.954;7.116;2022-12-31T16:01:26;17.00;99.90
5334;DHT22;2689;50.954;7.116;2022-12-31T16:03:58;17.00;99.90
5334;DHT22;2689;50.954;7.116;2022-12-31T16:06:28;17.00;99.90
5334;DHT22;2689;50.954;7.116;2022-12-31T16:08:56;16.90;99.90
5334;DHT22;2689;50.954;7.116;2022-12-31T16:11:25;16.90;99.90
5334;DHT22;2689;50.954;7.116;2022-12-31T16:13:56;16.90;99.90
5334;DHT22;2689;50.954;7.116;2022-12-31T16:16:25;16.90;99.90
5334;DHT22;2689;50.954;7.116;2022-12-31T16:18:53;16.90;99.90
5334;DHT22;2689;50.954;7.116;2022-12-31T16:21:25;16.90;99.90
5334;DHT22;2689;50.954;7.116;2022-12-31T16:23:54;16.90;99.90
5334;DHT22;2689;50.954;7.116;2022-12-31T16:26:23;16.90;99.90
5334;DHT22;2689;50.954;7.116;2022-12-31T16:28:54;16.90;99.90
5334;DHT22;2689;50.954;7.116;2022-12-31T16:31:24;16.90;99.90
5334;DHT22;2689;50.954;7.116;2022-12-31T16:34:02;16.90;99.90
5334;DHT22;2689;50.954;7.116;2022-12-31T16:36:29;16.80;99.90
5334;DHT22;2689;50.954;7.116;2022-12-31T16:39:19;16.80;99.90
5334;DHT22;2689;50.954;7.116;2022-12-31T16:41:47;16.80;99.90
5334;DHT22;2689;50.954;7.116;2022-12-31T16:44:24;16.90;99.90
5334;DHT22;2689;50.954;7.116;2022-12-31T16:46:54;16.90;99.90
5334;DHT22;2689;50.954;7.116;2022-12-31T16:49:21;16.90;99.90
5334;DHT22;2689;50.954;7.116;2022-12-31T16:51:48;16.80;99.90
5334;DHT22;2689;50.954;7.116;2022-12-31T16:54:19;16.80;99.90
5334;DHT22;2689;50.954;7.116;2022-12-31T16:56:47;16.80;99.90
5334;DHT22;2689;50.954;7.116;2022-12-31T16:59:20;16.80;99.90
5334;DHT22;2689;50.954;7.116;2022-12-31T17:01:49;16.70;99.90